Time;durP1;ratioP1;P1;durP2;ratioP2;P2;SDS_P1;SDS_P2;PMS_P1;PMS_P2;Temp;Humidity;BMP_temperature;BMP_pressure;BME280_temperature;BME280_humidity;BME280_pressure;Samples;Min_cycle;Max_cycle;Signal;HPM_P1;HPM_P2
2022/12/20 00:01:17;;;;;;;10.30;5.83;;;3.00;64.90;;;;;;4972178;28;46603;-67
2022/12/20 00:03:43;;;;;;;11.25;6.68;;;3.00;64.80;;;;;;4970640;28;46393;-70
2022/12/20 00:06:10;;;;;;;11.68;6.40;;;2.90;65.00;;;;;;4985929;28;46380;-68
2022/12/20 00:08:37;;;;;;;10.35;6.30;;;2.90;64.90;;;;;;4974743;28;45988;-68
2022/12/20 00:11:04;;;;;;;12.40;5.93;;;2.90;65.10;;;;;;4972983;28;46532;-68
2022/12/20 00:13:30;;;;;;;9.70;5.50;;;2.90;65.10;;;;;;4970772;28;46543;-68
2022/12/20 00:16:14;;;;;;;10.70;6.40;;;2.90;65.20;;;;;;4971515;28;46403;-68
2022/12/20 00:18:41;;;;;;;12.57;6.70;;;2.80;65.00;;;;;;4970263;28;46045;-68
2022/12/20 00:21:08;;;;;;;12.60;7.03;;;2.80;65.20;;;;;;4970445;28;46658;-68
2022/12/20 00:23:35;;;;;;;11.18;6.38;;;2.80;65.10;;;;;;4969146;28;47307;-68
2022/12/20 00:26:06;;;;;;;10.00;5.45;;;2.90;65.20;;;;;;4970772;28;46388;-67
2022/12/20 00:28:33;;;;;;;11.07;6.25;;;2.90;65.00;;;;;;4971620;28;46356;-68
2022/12/20 00:30:59;;;;;;;9.25;6.00;;;2.90;64.70;;;;;;4972206;28;45952;-68
2022/12/20 00:33:25;;;;;;;13.27;6.73;;;3.00;64.70;;;;;;4972578;28;48129;-68
2022/12/20 00:35:51;;;;;;;14.48;5.75;;;3.00;64.60;;;;;;4969736;28;46559;-68
2022/12/20 00:38:17;;;;;;;11.63;6.20;;;3.00;64.30;;;;;;4987246;28;46488;-69
2022/12/20 00:40:42;;;;;;;10.73;5.63;;;3.10;64.20;;;;;;4972123;28;46691;-69
2022/12/20 00:43:08;;;;;;;13.60;5.90;;;3.00;64.20;;;;;;4972998;28;46610;-67
2022/12/20 00:45:34;;;;;;;9.20;5.33;;;3.00;64.20;;;;;;4973527;28;46499;-66
2022/12/20 00:47:59;;;;;;;10.10;5.73;;;3.00;64.30;;;;;;4971522;28;46454;-67
2022/12/20 00:50:25;;;;;;;8.37;4.20;;;2.90;64.50;;;;;;4970548;28;46583;-66
2022/12/20 00:52:51;;;;;;;9.97;5.70;;;2.90;64.60;;;;;;4969894;28;46503;-67
2022/12/20 00:55:16;;;;;;;8.50;4.60;;;2.80;64.80;;;;;;4970342;28;46603;-66
2022/12/20 00:57:42;;;;;;;10.80;4.80;;;2.70;64.90;;;;;;4971295;28;46485;-67
2022/12/20 01:00:08;;;;;;;8.50;4.83;;;2.70;65.20;;;;;;4970363;28;46662;-67
2022/12/20 01:02:33;;;;;;;7.32;4.57;;;2.70;65.30;;;;;;4970421;28;46592;-66
2022/12/20 01:04:59;;;;;;;9.77;5.00;;;2.70;65.20;;;;;;4970519;28;46246;-67
2022/12/20 01:07:25;;;;;;;7.30;4.33;;;2.70;65.20;;;;;;4970046;28;46368;-66
2022/12/20 01:09:51;;;;;;;8.10;5.03;;;2.70;65.20;;;;;;4971207;28;46362;-67
2022/12/20 01:12:17;;;;;;;6.93;4.70;;;2.80;65.10;;;;;;4969140;28;47703;-66
2022/12/20 01:14:43;;;;;;;8.25;4.85;;;2.80;64.80;;;;;;4967249;28;46591;-66
2022/12/20 01:17:08;;;;;;;10.00;4.60;;;2.80;64.40;;;;;;4970097;28;46455;-66
2022/12/20 01:19:34;;;;;;;8.10;4.87;;;2.90;64.40;;;;;;4973143;28;46482;-66
2022/12/20 01:22:00;;;;;;;7.20;4.27;;;2.90;64.20;;;;;;4970022;28;47371;-66
2022/12/20 01:24:25;;;;;;;8.33;4.90;;;3.00;64.10;;;;;;4968526;28;46579;-68
2022/12/20 01:26:51;;;;;;;6.03;4.40;;;3.10;64.00;;;;;;4971236;28;46300;-66
2022/12/20 01:29:16;;;;;;;7.00;4.20;;;3.20;63.70;;;;;;4971695;28;46365;-66
2022/12/20 01:31:42;;;;;;;8.90;4.63;;;3.20;62.90;;;;;;4970359;28;46353;-66
2022/12/20 01:34:08;;;;;;;10.07;4.40;;;3.20;64.00;;;;;;4969069;28;46482;-67
2022/12/20 01:36:37;;;;;;;9.00;5.00;;;3.20;64.00;;;;;;4969746;28;46436;-67
2022/12/20 01:39:13;;;;;;;8.85;4.50;;;3.10;64.10;;;;;;4974717;28;46645;-66
2022/12/20 01:41:39;;;;;;;8.73;4.63;;;3.10;63.30;;;;;;4968749;28;46557;-67
2022/12/20 01:44:25;;;;;;;6.10;4.38;;;3.10;64.30;;;;;;4968634;28;46381;-66
2022/12/20 01:46:51;;;;;;;9.85;3.45;;;3.00;64.40;;;;;;4971714;28;46451;-67
2022/12/20 01:49:38;;;;;;;6.73;3.50;;;3.00;64.60;;;;;;4968252;28;46545;-65
2022/12/20 01:52:12;;;;;;;7.13;4.03;;;3.00;64.60;;;;;;4969688;28;47243;-66
2022/12/20 01:54:52;;;;;;;8.98;4.93;;;3.10;64.50;;;;;;4969790;28;46436;-66
2022/12/20 01:57:45;;;;;;;6.32;4.30;;;3.10;64.50;;;;;;4981943;28;46496;-67
2022/12/20 02:00:12;;;;;;;9.45;5.47;;;3.10;64.20;;;;;;4971261;28;46519;-66
2022/12/20 02:02:39;;;;;;;7.63;4.25;;;3.20;64.10;;;;;;4969239;28;46566;-66
2022/12/20 02:05:05;;;;;;;7.75;4.60;;;3.20;64.10;;;;;;4969174;28;46438;-64
2022/12/20 02:07:33;;;;;;;7.53;4.60;;;3.20;64.00;;;;;;4964333;28;46483;-65
2022/12/20 02:10:01;;;;;;;7.00;4.20;;;3.20;64.10;;;;;;4970201;28;46500;-65
2022/12/20 02:12:36;;;;;;;7.63;3.83;;;3.20;64.20;;;;;;4966678;28;46770;-65
2022/12/20 02:15:14;;;;;;;1128.43;624.67;;;3.20;64.30;;;;;;4970078;28;46373;-66
2022/12/20 02:17:58;;;;;;;26.20;14.05;;;3.30;64.30;;;;;;4971724;28;46369;-66
2022/12/20 02:20:52;;;;;;;8.13;4.63;;;3.60;64.20;;;;;;4970172;28;45890;-66
2022/12/20 02:23:55;;;;;;;7.05;4.30;;;3.50;64.30;;;;;;4968188;28;46835;-65
2022/12/20 02:26:55;;;;;;;8.00;3.97;;;3.40;64.60;;;;;;4984410;28;46396;-65
2022/12/20 02:29:38;;;;;;;7.88;4.30;;;3.40;64.60;;;;;;4967442;28;46455;-66
2022/12/20 02:32:17;;;;;;;5.63;3.50;;;3.40;64.60;;;;;;4981543;28;46443;-65
2022/12/20 02:34:43;;;;;;;8.20;4.20;;;3.30;64.60;;;;;;4986636;28;47245;-66
2022/12/20 02:37:09;;;;;;;6.20;3.72;;;3.40;64.70;;;;;;4968359;28;46522;-65
2022/12/20 02:39:38;;;;;;;16.40;8.10;;;3.40;64.60;;;;;;4970170;28;45888;-66
2022/12/20 02:42:10;;;;;;;7.70;4.78;;;3.40;64.50;;;;;;4971411;28;46051;-66
2022/12/20 02:47:29;;;;;;;5.75;3.60;;;3.30;64.50;;;;;;4967372;28;46571;-66
2022/12/20 02:49:56;;;;;;;7.10;3.63;;;3.30;64.80;;;;;;4966578;28;46463;-66
2022/12/20 02:52:25;;;;;;;7.20;4.57;;;3.20;64.80;;;;;;4968877;28;46440;-66
2022/12/20 02:54:54;;;;;;;8.32;2.88;;;3.20;64.90;;;;;;4967363;28;46857;-66
2022/12/20 02:57:50;;;;;;;6.00;4.00;;;3.20;65.10;;;;;;4973815;28;45840;-66
2022/12/20 03:00:19;;;;;;;8.50;3.58;;;3.20;65.00;;;;;;4966539;28;45985;-66
2022/12/20 03:05:33;;;;;;;6.78;3.95;;;3.20;64.90;;;;;;4967149;28;46162;-65
2022/12/20 03:07:59;;;;;;;6.15;3.50;;;3.20;64.90;;;;;;4967727;28;45839;-66
2022/12/20 03:10:25;;;;;;;4.80;3.05;;;3.20;64.90;;;;;;4965595;28;46503;-66
2022/12/20 03:12:51;;;;;;;4.82;2.65;;;3.20;64.80;;;;;;4968570;28;46676;-66
2022/12/20 03:15:17;;;;;;;4.77;3.27;;;3.20;64.60;;;;;;4967615;28;46659;-65
2022/12/20 03:17:43;;;;;;;7.90;4.10;;;3.20;64.60;;;;;;4968380;28;46673;-66
2022/12/20 03:20:10;;;;;;;4.17;2.77;;;3.20;64.70;;;;;;4972787;28;46533;-66
2022/12/20 03:22:36;;;;;;;3.40;2.17;;;3.40;64.60;;;;;;4975409;28;46733;-66
2022/12/20 03:25:02;;;;;;;4.25;2.55;;;3.50;64.50;;;;;;4974698;28;46675;-66
2022/12/20 03:27:28;;;;;;;6.90;2.67;;;3.60;64.40;;;;;;4971835;28;46588;-66
2022/12/20 03:29:54;;;;;;;4.53;2.60;;;3.70;64.60;;;;;;4972809;28;46440;-66
2022/12/20 03:32:20;;;;;;;3.13;2.10;;;3.70;64.60;;;;;;4972621;28;46556;-66
2022/12/20 03:34:46;;;;;;;5.80;3.07;;;3.80;64.80;;;;;;4972449;28;46597;-66
2022/12/20 03:37:12;;;;;;;5.13;2.67;;;3.90;64.90;;;;;;4969379;28;46194;-66
2022/12/20 03:39:37;;;;;;;4.83;3.00;;;3.90;64.80;;;;;;4973966;28;46495;-66
2022/12/20 03:42:03;;;;;;;4.00;2.93;;;3.90;64.90;;;;;;4968829;28;46613;-65
2022/12/20 03:44:28;;;;;;;4.67;2.53;;;4.00;64.80;;;;;;4972837;28;46431;-65
2022/12/20 03:46:54;;;;;;;5.07;3.20;;;4.10;64.70;;;;;;4975037;28;46456;-66
2022/12/20 03:49:19;;;;;;;47.63;23.33;;;4.10;64.60;;;;;;4972281;28;46486;-65
2022/12/20 03:51:45;;;;;;;10.70;5.80;;;4.10;64.70;;;;;;4969726;28;46455;-66
2022/12/20 03:54:11;;;;;;;12.27;5.63;;;4.20;64.70;;;;;;4972719;28;46198;-66
2022/12/20 03:56:36;;;;;;;4.87;2.93;;;4.30;64.60;;;;;;4986587;28;46098;-65
2022/12/20 03:59:02;;;;;;;4.70;2.97;;;4.20;64.50;;;;;;4973865;28;46458;-65
2022/12/20 04:01:28;;;;;;;3.40;2.40;;;4.10;64.70;;;;;;4972426;28;46484;-66
2022/12/20 04:03:54;;;;;;;5.33;2.97;;;4.10;64.90;;;;;;4971951;28;47369;-66
2022/12/20 04:06:21;;;;;;;8.68;4.10;;;4.00;65.00;;;;;;4972874;28;46776;-65
2022/12/20 04:08:47;;;;;;;4.38;2.90;;;4.00;65.20;;;;;;4972595;28;46366;-65
2022/12/20 04:11:16;;;;;;;4.30;2.60;;;4.00;65.20;;;;;;4970111;28;46490;-65
2022/12/20 04:13:47;;;;;;;5.07;2.57;;;4.00;65.10;;;;;;4976470;28;48032;-66
2022/12/20 04:16:16;;;;;;;3.97;2.47;;;4.00;64.90;;;;;;4969748;28;46556;-66
2022/12/20 04:18:42;;;;;;;3.60;2.25;;;4.00;65.00;;;;;;4971628;28;46397;-66
2022/12/20 04:21:08;;;;;;;5.23;2.50;;;4.00;64.90;;;;;;4971466;28;45931;-65
2022/12/20 04:23:36;;;;;;;5.10;2.97;;;4.00;65.00;;;;;;4972751;28;47044;-67
2022/12/20 04:26:03;;;;;;;3.40;2.30;;;4.00;65.00;;;;;;4972642;28;46439;-66
2022/12/20 04:28:29;;;;;;;4.10;2.20;;;4.00;65.00;;;;;;4986249;28;45921;-63
2022/12/20 04:30:55;;;;;;;4.77;2.27;;;4.00;65.00;;;;;;4970289;28;46012;-63
2022/12/20 04:33:21;;;;;;;11.70;5.07;;;4.00;65.20;;;;;;4972519;28;46501;-64
2022/12/20 04:35:46;;;;;;;13.23;6.25;;;4.00;65.40;;;;;;4972959;28;46286;-64
2022/12/20 04:38:12;;;;;;;6.50;2.87;;;3.90;65.60;;;;;;4971053;28;46393;-65
2022/12/20 04:40:38;;;;;;;5.47;2.40;;;3.90;66.00;;;;;;4971813;28;46440;-65
2022/12/20 04:43:03;;;;;;;3.80;2.40;;;3.80;65.90;;;;;;4970134;28;46411;-65
2022/12/20 04:45:29;;;;;;;4.33;2.13;;;3.70;66.20;;;;;;4968279;28;46425;-64
2022/12/20 04:47:54;;;;;;;3.40;2.47;;;3.70;66.40;;;;;;4973312;28;46308;-65
2022/12/20 04:50:20;;;;;;;4.63;2.63;;;3.60;66.60;;;;;;4971067;28;46117;-64
2022/12/20 04:55:35;;;;;;;2.85;1.88;;;3.60;66.70;;;;;;4972466;28;45848;-65
2022/12/20 04:58:01;;;;;;;4.07;1.95;;;3.60;66.80;;;;;;4976704;28;46550;-65
2022/12/20 05:00:27;;;;;;;4.63;2.70;;;3.60;66.90;;;;;;4970580;28;46325;-63
2022/12/20 05:02:52;;;;;;;3.90;1.63;;;3.60;67.90;;;;;;4973035;28;46490;-65
2022/12/20 05:05:18;;;;;;;3.70;2.47;;;3.60;67.40;;;;;;4970238;28;46405;-65
2022/12/20 05:07:43;;;;;;;3.20;2.03;;;3.60;67.60;;;;;;4971107;28;46286;-65
2022/12/20 05:10:09;;;;;;;4.17;2.10;;;3.60;67.70;;;;;;4971685;28;46586;-64
2022/12/20 05:12:35;;;;;;;4.17;2.30;;;3.50;67.60;;;;;;4969553;28;47176;-64
2022/12/20 05:15:00;;;;;;;3.53;2.07;;;3.50;67.90;;;;;;4973803;28;46411;-65
2022/12/20 05:17:26;;;;;;;2.33;1.80;;;3.50;67.80;;;;;;4972975;28;46328;-64
2022/12/20 05:19:51;;;;;;;1.93;1.47;;;3.50;67.90;;;;;;4969790;28;46460;-64
2022/12/20 05:27:45;;;;;;;5.63;3.13;;;3.70;67.50;;;;;;4968235;28;46415;-65
2022/12/20 05:30:11;;;;;;;3.80;2.70;;;3.70;67.30;;;;;;4977458;28;45812;-65
2022/12/20 05:32:37;;;;;;;3.07;2.07;;;3.80;67.00;;;;;;4966725;28;46464;-64
2022/12/20 05:35:03;;;;;;;4.20;2.10;;;3.90;67.00;;;;;;4968483;28;46638;-64
2022/12/20 05:37:28;;;;;;;5.33;2.10;;;3.90;67.80;;;;;;4970710;28;46444;-65
2022/12/20 05:39:54;;;;;;;3.73;2.23;;;4.00;66.40;;;;;;4971253;28;46533;-64
2022/12/20 05:42:20;;;;;;;3.00;1.97;;;4.10;66.40;;;;;;4969082;28;47233;-64
2022/12/20 05:44:45;;;;;;;2.50;1.90;;;4.10;66.30;;;;;;4968609;28;46420;-65
2022/12/20 05:47:11;;;;;;;3.00;1.93;;;4.10;66.20;;;;;;4970790;28;45873;-65
2022/12/20 05:49:36;;;;;;;5.60;2.90;;;4.10;66.10;;;;;;4972162;28;46470;-64
2022/12/20 05:52:02;;;;;;;7.17;3.20;;;4.10;65.80;;;;;;4970085;28;46410;-64
2022/12/20 05:54:28;;;;;;;5.03;3.30;;;4.10;65.90;;;;;;4968411;28;46399;-65
2022/12/20 05:56:53;;;;;;;6.27;3.40;;;4.10;65.80;;;;;;4969540;28;46437;-65
2022/12/20 05:59:19;;;;;;;5.27;3.30;;;4.10;65.80;;;;;;4968432;28;46365;-65
2022/12/20 06:01:45;;;;;;;3.93;2.27;;;4.10;64.70;;;;;;4971813;28;46575;-65
2022/12/20 06:04:10;;;;;;;3.53;2.20;;;4.10;65.70;;;;;;4968781;28;46657;-65
2022/12/20 06:06:36;;;;;;;7.27;2.00;;;4.10;65.60;;;;;;4972038;28;46446;-65
2022/12/20 06:09:02;;;;;;;3.57;2.50;;;4.10;65.80;;;;;;4970036;28;46512;-64
2022/12/20 06:11:27;;;;;;;3.30;2.10;;;4.10;65.30;;;;;;4971798;28;47623;-64
2022/12/20 06:13:53;;;;;;;3.17;2.10;;;4.00;66.30;;;;;;4969134;28;46480;-65
2022/12/20 06:16:19;;;;;;;3.77;2.57;;;4.00;66.20;;;;;;4970045;28;46377;-64
2022/12/20 06:18:45;;;;;;;4.63;2.50;;;4.10;66.20;;;;;;4967733;28;46484;-64
2022/12/20 06:21:12;;;;;;;6.03;3.10;;;4.10;66.10;;;;;;4967743;28;46899;-65
2022/12/20 06:23:37;;;;;;;4.00;2.55;;;4.20;66.20;;;;;;4971969;28;46455;-64
2022/12/20 06:26:03;;;;;;;9.70;2.87;;;4.10;66.30;;;;;;4984072;28;46582;-64
2022/12/20 06:28:29;;;;;;;4.60;2.60;;;4.10;66.50;;;;;;4967983;28;46536;-64
2022/12/20 06:30:56;;;;;;;3.27;2.10;;;4.10;66.60;;;;;;4967716;28;46523;-64
2022/12/20 06:33:23;;;;;;;3.83;2.38;;;4.00;66.50;;;;;;4968958;28;46478;-64
2022/12/20 06:35:50;;;;;;;3.05;2.35;;;3.90;66.90;;;;;;4971957;28;45958;-64
2022/12/20 06:38:15;;;;;;;3.50;2.30;;;3.90;68.30;;;;;;4970292;28;46621;-64
2022/12/20 06:40:41;;;;;;;3.47;2.50;;;3.90;67.40;;;;;;4971420;28;46533;-64
2022/12/20 06:43:07;;;;;;;3.93;2.70;;;3.80;67.50;;;;;;4972254;28;46412;-64
2022/12/20 06:45:32;;;;;;;5.97;2.50;;;3.80;67.40;;;;;;4970818;28;46382;-65
2022/12/20 06:47:58;;;;;;;3.80;1.93;;;3.90;67.40;;;;;;4971206;28;46496;-65
2022/12/20 06:50:24;;;;;;;4.90;2.40;;;3.90;67.20;;;;;;4970771;28;46566;-64
2022/12/20 06:52:50;;;;;;;5.50;2.53;;;3.90;67.00;;;;;;4968034;28;46529;-65
2022/12/20 06:55:16;;;;;;;4.90;2.53;;;4.00;67.10;;;;;;4971945;28;46488;-64
2022/12/20 06:57:42;;;;;;;5.43;2.43;;;4.00;66.90;;;;;;4976180;28;46526;-64
2022/12/20 07:00:11;;;;;;;6.77;2.53;;;4.10;66.70;;;;;;4971222;28;47556;-64
2022/12/20 07:02:37;;;;;;;3.45;2.15;;;4.10;66.50;;;;;;4968513;28;46514;-64
2022/12/20 07:05:03;;;;;;;3.53;2.50;;;4.20;66.60;;;;;;4974859;28;46582;-65
2022/12/20 07:07:29;;;;;;;5.63;3.43;;;4.30;66.50;;;;;;4975708;28;46451;-66
2022/12/20 07:09:54;;;;;;;3.60;2.63;;;4.30;66.40;;;;;;4970090;28;46533;-66
2022/12/20 07:12:20;;;;;;;5.07;2.57;;;4.40;66.00;;;;;;4971271;28;46568;-67
2022/12/20 07:14:46;;;;;;;5.00;2.33;;;4.50;65.80;;;;;;4971384;28;46413;-66
2022/12/20 07:17:12;;;;;;;3.77;2.10;;;4.50;65.70;;;;;;4973975;28;46467;-67
2022/12/20 07:19:37;;;;;;;3.73;2.80;;;4.60;65.90;;;;;;4974336;28;46474;-66
2022/12/20 07:22:04;;;;;;;6.10;2.70;;;4.70;66.00;;;;;;4972868;28;46424;-66
2022/12/20 07:24:30;;;;;;;3.60;2.00;;;4.80;66.00;;;;;;4972109;28;46401;-66
2022/12/20 07:26:56;;;;;;;5.10;2.30;;;4.80;65.80;;;;;;4969229;28;46483;-66
2022/12/20 07:29:22;;;;;;;4.10;2.40;;;4.80;65.80;;;;;;4969759;28;46570;-65
2022/12/20 07:31:47;;;;;;;3.33;1.90;;;4.90;65.80;;;;;;4971344;28;46566;-65
2022/12/20 07:34:13;;;;;;;10.30;5.20;;;4.90;65.60;;;;;;4973437;28;46536;-66
2022/12/20 07:36:38;;;;;;;35.27;11.97;;;5.00;65.60;;;;;;4985130;28;47192;-65
2022/12/20 07:39:04;;;;;;;38.03;20.93;;;5.10;65.20;;;;;;4969759;28;46430;-66
2022/12/20 07:41:30;;;;;;;8.93;4.50;;;5.20;64.10;;;;;;4973106;28;46615;-66
2022/12/20 07:43:58;;;;;;;5.40;3.67;;;5.10;65.10;;;;;;4967386;28;46551;-66
2022/12/20 07:46:23;;;;;;;3.50;1.93;;;5.20;65.00;;;;;;4972986;28;46420;-65
2022/12/20 07:48:49;;;;;;;4.90;2.53;;;5.20;65.00;;;;;;4970925;28;48079;-65
2022/12/20 07:51:20;;;;;;;4.97;2.63;;;5.10;64.90;;;;;;4970713;28;46452;-66
2022/12/20 07:53:59;;;;;;;7.10;3.85;;;5.20;65.10;;;;;;4969517;28;46321;-66
2022/12/20 07:56:25;;;;;;;10.93;3.47;;;5.10;64.80;;;;;;4973152;28;46719;-66
2022/12/20 07:58:57;;;;;;;3.93;2.47;;;5.10;64.90;;;;;;4971529;28;46523;-66
2022/12/20 08:01:23;;;;;;;5.70;2.22;;;5.20;65.00;;;;;;4964760;28;46496;-66
2022/12/20 08:03:55;;;;;;;5.03;2.47;;;5.30;64.80;;;;;;4974406;28;46370;-66
2022/12/20 08:06:21;;;;;;;4.60;2.43;;;5.30;64.90;;;;;;4971331;28;46427;-66
2022/12/20 08:08:50;;;;;;;5.93;2.20;;;5.40;64.70;;;;;;4970514;28;46272;-66
2022/12/20 08:11:17;;;;;;;3.40;1.90;;;5.50;64.70;;;;;;4972296;28;46555;-66
2022/12/20 08:13:43;;;;;;;3.37;2.00;;;5.70;64.30;;;;;;4972404;28;46450;-66
2022/12/20 08:16:09;;;;;;;8.10;3.07;;;5.70;64.10;;;;;;4970937;28;46365;-66
2022/12/20 08:18:34;;;;;;;3.60;2.77;;;5.90;64.00;;;;;;4968085;28;47571;-66
2022/12/20 08:21:00;;;;;;;8.87;2.97;;;6.00;63.60;;;;;;4971424;28;46379;-66
2022/12/20 08:23:25;;;;;;;3.80;2.20;;;6.10;63.30;;;;;;4970822;28;46269;-66
2022/12/20 08:25:51;;;;;;;8.17;3.10;;;6.20;63.00;;;;;;4973366;28;46626;-66
2022/12/20 08:28:17;;;;;;;5.97;3.03;;;6.30;62.90;;;;;;4970208;28;46685;-66
2022/12/20 08:30:42;;;;;;;4.50;2.67;;;6.20;63.10;;;;;;4968309;28;46469;-66
2022/12/20 08:33:08;;;;;;;5.93;2.90;;;6.10;63.20;;;;;;4978420;28;46374;-66
2022/12/20 08:35:34;;;;;;;6.20;3.00;;;6.00;63.60;;;;;;4987668;28;46432;-67
2022/12/20 08:38:00;;;;;;;4.03;2.67;;;6.00;63.80;;;;;;4969529;28;46339;-66
2022/12/20 08:40:25;;;;;;;7.30;2.87;;;6.10;63.90;;;;;;4971025;28;46833;-66
2022/12/20 08:42:51;;;;;;;4.13;2.80;;;6.20;63.50;;;;;;4972345;28;46212;-66
2022/12/20 08:45:18;;;;;;;6.07;2.80;;;6.40;63.40;;;;;;4967966;28;46507;-66
2022/12/20 08:47:43;;;;;;;3.70;2.40;;;6.40;63.10;;;;;;4983051;28;48190;-66
2022/12/20 08:50:09;;;;;;;5.73;3.57;;;6.40;63.10;;;;;;4982136;28;46443;-66
2022/12/20 08:52:35;;;;;;;7.50;3.43;;;6.50;63.00;;;;;;4968651;28;46440;-67
2022/12/20 08:55:00;;;;;;;6.97;3.60;;;6.60;62.50;;;;;;4970760;28;46468;-66
2022/12/20 08:57:26;;;;;;;6.23;3.83;;;6.70;62.60;;;;;;4968619;28;46414;-66
2022/12/20 08:59:52;;;;;;;5.60;3.47;;;6.80;62.60;;;;;;4971789;28;46533;-65
2022/12/20 09:02:17;;;;;;;4.93;3.00;;;6.90;62.40;;;;;;4966819;28;46381;-66
2022/12/20 09:04:43;;;;;;;6.50;3.50;;;7.00;62.10;;;;;;4967344;28;45886;-66
2022/12/20 09:07:09;;;;;;;5.20;2.90;;;7.10;61.50;;;;;;4967489;28;47157;-66
2022/12/20 09:09:35;;;;;;;6.03;2.70;;;7.20;61.20;;;;;;4968747;28;46439;-66
2022/12/20 09:12:00;;;;;;;5.00;2.80;;;7.30;60.90;;;;;;4970117;28;46791;-66
2022/12/20 09:14:26;;;;;;;6.23;2.83;;;7.40;60.50;;;;;;4970685;28;46586;-66
2022/12/20 09:16:52;;;;;;;4.53;2.80;;;7.40;60.20;;;;;;4968713;28;47680;-66
2022/12/20 09:19:17;;;;;;;4.30;2.63;;;7.40;60.10;;;;;;4967651;28;46460;-66
2022/12/20 09:21:43;;;;;;;6.87;3.77;;;7.40;59.20;;;;;;4968526;28;46538;-66
2022/12/20 09:24:09;;;;;;;9.77;6.10;;;7.40;60.00;;;;;;4973527;28;46100;-66
2022/12/20 09:26:34;;;;;;;8.30;4.40;;;7.50;59.90;;;;;;4973032;28;47625;-66
2022/12/20 09:29:01;;;;;;;15.13;9.37;;;7.50;59.80;;;;;;4971560;28;46307;-66
2022/12/20 09:31:26;;;;;;;9.10;4.93;;;7.60;59.60;;;;;;4971682;28;45873;-66
2022/12/20 09:33:54;;;;;;;8.23;6.70;;;7.70;59.50;;;;;;4984850;28;46462;-67
2022/12/20 09:36:21;;;;;;;8.30;4.27;;;7.70;59.30;;;;;;4985377;28;47537;-66
2022/12/20 09:38:47;;;;;;;5.83;3.60;;;7.70;59.40;;;;;;4970337;28;45880;-66
2022/12/20 09:41:28;;;;;;;6.73;4.20;;;7.80;59.50;;;;;;4968325;28;46277;-66
2022/12/20 09:43:54;;;;;;;7.40;3.17;;;7.70;59.10;;;;;;4971440;28;46476;-66
2022/12/20 09:46:22;;;;;;;5.33;3.00;;;7.60;59.30;;;;;;4967595;28;47384;-66
2022/12/20 09:48:48;;;;;;;4.60;2.37;;;7.60;59.30;;;;;;4969134;28;45927;-66
2022/12/20 09:51:32;;;;;;;8.40;2.80;;;7.50;59.40;;;;;;4976237;28;46305;-67
2022/12/20 09:54:36;;;;;;;3.77;2.80;;;7.40;59.30;;;;;;4965939;28;46332;-65
2022/12/20 09:57:06;;;;;;;5.70;3.60;;;7.40;59.40;;;;;;4969817;28;46462;-67
2022/12/20 09:59:34;;;;;;;6.10;4.20;;;7.50;59.20;;;;;;4970969;28;46372;-67
2022/12/20 10:02:00;;;;;;;7.93;3.83;;;7.60;59.00;;;;;;4969554;28;46507;-67
2022/12/20 10:04:28;;;;;;;5.80;3.00;;;7.70;58.60;;;;;;4969081;28;46537;-67
2022/12/20 10:07:06;;;;;;;4.10;2.60;;;7.70;58.30;;;;;;4969971;28;47534;-67
2022/12/20 10:09:59;;;;;;;9.47;3.20;;;7.80;58.30;;;;;;4967647;28;46421;-65
2022/12/20 10:12:36;;;;;;;7.00;3.63;;;7.80;57.90;;;;;;4972473;28;46436;-66
2022/12/20 10:15:16;;;;;;;5.70;2.43;;;7.90;57.80;;;;;;4969878;28;46471;-67
2022/12/20 10:17:45;;;;;;;7.63;4.00;;;8.00;57.40;;;;;;4970765;28;46643;-67
2022/12/20 10:20:22;;;;;;;7.37;3.47;;;7.90;56.90;;;;;;4970421;28;46693;-66
2022/12/20 10:22:57;;;;;;;7.00;3.17;;;7.80;56.80;;;;;;4968625;28;46519;-66
2022/12/20 10:25:31;;;;;;;6.87;4.03;;;7.80;57.10;;;;;;4970343;28;46830;-66
2022/12/20 10:28:01;;;;;;;6.90;3.37;;;7.80;57.00;;;;;;4966341;28;47088;-66
2022/12/20 10:30:28;;;;;;;8.33;4.00;;;7.90;57.00;;;;;;4971762;28;46383;-66
2022/12/20 10:32:56;;;;;;;9.10;3.90;;;8.00;56.80;;;;;;4975054;28;46445;-66
2022/12/20 10:35:36;;;;;;;6.53;3.23;;;8.00;56.30;;;;;;4972552;28;46492;-65
2022/12/20 10:38:11;;;;;;;6.77;4.23;;;8.10;56.30;;;;;;4972947;28;47526;-66
2022/12/20 10:40:39;;;;;;;5.60;2.97;;;8.20;56.20;;;;;;4972733;28;46474;-65
2022/12/20 10:43:13;;;;;;;7.03;2.83;;;8.30;55.70;;;;;;4974862;28;46322;-65
2022/12/20 10:45:41;;;;;;;9.73;3.13;;;8.30;55.20;;;;;;4972978;28;46669;-66
2022/12/20 10:48:26;;;;;;;8.33;3.93;;;8.40;55.10;;;;;;4970940;28;47267;-65
2022/12/20 10:51:19;;;;;;;9.00;3.77;;;8.40;54.90;;;;;;4973565;28;46652;-64
2022/12/20 10:53:55;;;;;;;10.80;6.00;;;8.50;54.50;;;;;;4965019;28;47765;-66
2022/12/20 10:56:35;;;;;;;8.33;4.17;;;8.60;54.80;;;;;;4974896;28;46028;-65
2022/12/20 10:59:16;;;;;;;13.83;6.70;;;8.80;54.40;;;;;;4975888;28;46473;-65
2022/12/20 11:01:44;;;;;;;29.57;14.67;;;9.20;52.70;;;;;;4969017;28;46507;-65
2022/12/20 11:04:34;;;;;;;16.00;7.00;;;9.20;53.70;;;;;;4973549;28;46496;-65
2022/12/20 11:07:20;;;;;;;5.40;3.50;;;9.50;52.70;;;;;;4972077;28;46433;-66
2022/12/20 11:09:55;;;;;;;7.70;4.13;;;9.70;52.40;;;;;;4974794;28;47212;-65
2022/12/20 11:12:20;;;;;;;7.60;3.80;;;9.80;52.40;;;;;;4973447;28;46437;-66
2022/12/20 11:14:48;;;;;;;5.60;3.20;;;10.00;51.60;;;;;;4971305;28;46503;-65
2022/12/20 11:17:13;;;;;;;5.20;3.30;;;10.20;51.10;;;;;;4971737;28;46442;-65
2022/12/20 11:19:57;;;;;;;4.87;2.90;;;10.30;50.40;;;;;;4969945;28;46460;-65
2022/12/20 11:22:50;;;;;;;7.50;3.50;;;10.50;49.60;;;;;;4984535;28;46419;-64
2022/12/20 11:25:53;;;;;;;8.63;3.57;;;10.40;49.50;;;;;;4970332;28;46457;-65
2022/12/20 11:28:37;;;;;;;5.90;2.97;;;10.30;49.50;;;;;;4971198;28;46392;-65
2022/12/20 11:31:17;;;;;;;10.53;4.40;;;10.20;49.60;;;;;;4968536;28;46463;-65
2022/12/20 11:33:58;;;;;;;4.30;2.30;;;10.30;49.80;;;;;;4971297;28;46423;-64
2022/12/20 11:36:52;;;;;;;5.73;3.10;;;10.20;49.60;;;;;;4973690;28;46565;-65
2022/12/20 11:40:01;;;;;;;5.73;3.03;;;10.10;49.90;;;;;;4972972;28;46447;-65
2022/12/20 11:42:54;;;;;;;5.43;2.60;;;10.00;50.00;;;;;;4970875;28;46483;-65
2022/12/20 11:45:44;;;;;;;6.60;3.43;;;9.90;51.10;;;;;;4969638;28;46401;-65
2022/12/20 11:48:32;;;;;;;12.03;3.20;;;9.90;51.30;;;;;;4969537;28;46054;-64
2022/12/20 11:51:04;;;;;;;6.10;3.83;;;9.90;51.20;;;;;;4970842;28;46731;-65
2022/12/20 11:53:56;;;;;;;6.33;3.33;;;9.90;51.00;;;;;;4971581;28;46327;-65
2022/12/20 11:56:46;;;;;;;10.97;3.23;;;10.00;49.90;;;;;;4963299;28;46474;-65
2022/12/20 11:59:17;;;;;;;11.70;5.00;;;10.00;49.70;;;;;;4969799;28;46472;-65
2022/12/20 12:01:52;;;;;;;26.83;11.23;;;10.00;48.80;;;;;;4972718;28;46448;-65
2022/12/20 12:04:25;;;;;;;13.17;7.40;;;10.00;49.60;;;;;;4972117;28;46594;-64
2022/12/20 12:07:16;;;;;;;9.20;4.13;;;10.10;49.60;;;;;;4971188;28;46456;-65
2022/12/20 12:09:57;;;;;;;7.30;5.27;;;10.00;50.00;;;;;;4975150;28;46434;-65
2022/12/20 12:12:31;;;;;;;13.17;7.20;;;10.10;50.90;;;;;;4970254;28;46463;-64
2022/12/20 12:15:34;;;;;;;8.80;5.53;;;10.00;49.20;;;;;;4972850;28;46441;-64
2022/12/20 12:18:15;;;;;;;22.30;10.90;;;9.80;50.00;;;;;;4970254;28;46409;-65
2022/12/20 12:20:54;;;;;;;17.73;9.57;;;9.60;50.40;;;;;;4972051;28;46476;-66
2022/12/20 12:23:37;;;;;;;12.63;6.40;;;9.60;50.80;;;;;;4975489;28;46009;-65
2022/12/20 12:26:14;;;;;;;16.20;9.50;;;9.70;50.70;;;;;;4970523;28;46505;-65
2022/12/20 12:28:40;;;;;;;14.93;7.33;;;9.70;50.40;;;;;;4970810;28;46353;-65
2022/12/20 12:31:12;;;;;;;17.27;7.90;;;9.60;50.10;;;;;;4970446;28;46435;-65
2022/12/20 12:33:47;;;;;;;10.00;5.60;;;9.30;50.10;;;;;;4971265;28;46464;-64
2022/12/20 12:36:27;;;;;;;8.87;5.30;;;9.20;50.60;;;;;;4965729;28;46843;-64
2022/12/20 12:39:23;;;;;;;11.33;5.77;;;9.10;51.00;;;;;;4971412;28;46468;-64
2022/12/20 12:42:29;;;;;;;7.67;5.00;;;9.00;50.70;;;;;;4970772;28;46553;-65
2022/12/20 12:44:58;;;;;;;9.97;4.93;;;8.80;51.40;;;;;;4969800;28;46261;-66
2022/12/20 12:47:44;;;;;;;7.00;5.27;;;8.80;51.50;;;;;;4972965;28;46439;-65
2022/12/20 12:50:31;;;;;;;11.60;6.90;;;8.90;51.70;;;;;;4976181;28;46396;-66
2022/12/20 12:53:15;;;;;;;13.63;6.60;;;8.90;51.60;;;;;;4970816;28;46717;-67
2022/12/20 12:55:51;;;;;;;14.87;8.20;;;9.00;51.60;;;;;;4976192;28;46475;-66
2022/12/20 12:58:23;;;;;;;18.70;9.40;;;9.00;51.60;;;;;;4972135;28;46883;-65
2022/12/20 13:00:54;;;;;;;14.00;7.33;;;9.10;51.20;;;;;;4969136;28;46407;-66
2022/12/20 13:03:41;;;;;;;12.80;6.77;;;9.10;51.10;;;;;;4969331;28;46446;-66
2022/12/20 13:06:22;;;;;;;15.70;6.97;;;9.20;50.80;;;;;;4968921;28;46438;-66
2022/12/20 13:09:02;;;;;;;8.20;4.57;;;9.20;50.70;;;;;;4972291;28;46414;-66
2022/12/20 13:11:35;;;;;;;6.43;4.17;;;9.30;50.70;;;;;;4971266;28;46367;-66
2022/12/20 13:14:16;;;;;;;8.70;4.23;;;9.30;50.50;;;;;;4971302;28;46451;-66
2022/12/20 13:16:42;;;;;;;6.53;3.90;;;9.20;50.60;;;;;;4969307;28;46266;-67
2022/12/20 13:19:12;;;;;;;5.40;3.43;;;9.20;50.70;;;;;;4969040;28;47296;-66
2022/12/20 13:21:40;;;;;;;6.37;3.80;;;9.00;49.80;;;;;;4968100;28;46791;-67
2022/12/20 13:24:27;;;;;;;9.93;3.30;;;9.00;50.90;;;;;;4970923;28;46488;-66
2022/12/20 13:26:54;;;;;;;6.00;3.13;;;8.90;51.00;;;;;;4972360;28;46297;-66